Accueil
METAR-TAF:

METAR-TAF

Aéroports :

Arnhem, Pays-Bas

latitude: 52-04N, longitude: 005-53E, altitude: 48 m

Observation

Le bulletin a été fait il y a 26 minutes, à 19:55 UTC
Vent 7 kt de est, variant entre nord/nord-est et sud/sud-est
Température 4°C
Humidité 81%
Pression 1019 hPa
Visibilité: 9000 m
Ciel couvert à une hauteur de 1500 ft
brume sèche

METAR: EHDL 211955Z AUTO 09007KT 020V150 9000 HZ OVC015 04/01 Q1019 WHT

Heure: 21:21 (20:21 UTC)

Prévision

Le bulletin a été fait il y a 2 heures et 59 minutes, à 17:22 UTC
Prévision valable du 21 à 18 UTC au 22 à 06 UTC
Vent 8 kt de est
Visibilité 10 km ou plus
Nuages fragmentés à une hauteur de 1600 ft
Evoluant progressivement
du 21 à 18 UTC au 21 à 21 UTC
Nuages fragmentés à une hauteur de 7000 ft
Evoluant progressivement
du 21 à 21 UTC au 21 à 23 UTC
Visibilité: 4000 m
brume

TAF: EHDL 211722Z 2118/2206 09008KT 9999 BKN016 BECMG 2118/2121 BKN070 BECMG 2121/2123 4000 BR

Observations et prévisions météorologiques de plus de 4000 aéroports (messages METAR et TAF).

Les stations disponibles sont représentées par des disques jaunes et rouges sur la carte.

Passer la souris dessus pour voir le nom de la station.

Cliquer dessus pour voir les observations et prévisions météorologiques.

Pour changer de carte: cliquez sur les boutons verts avec une croix noire pour zoomer, sur le bouton vert avec un tiret pour effectuer un zoom arrière, ou sur les flèches vertes pour les cartes adjacentes.


METAR-TAF: